createdAt,value
2022-08-07T00:05:12.307Z,3.30
2022-08-07T00:10:30.393Z,3.10
2022-08-07T00:15:46.685Z,2.60
2022-08-07T00:21:03.352Z,2.20
2022-08-07T00:26:31.172Z,2.00
2022-08-07T00:31:43.117Z,2.40
2022-08-07T00:36:46.808Z,2.40
2022-08-07T00:42:01.988Z,2.60
2022-08-07T00:47:16.085Z,2.50
2022-08-07T00:52:34.788Z,2.50
2022-08-07T00:57:55.758Z,2.80
2022-08-07T01:03:08.295Z,2.60
2022-08-07T01:08:16.456Z,2.70
2022-08-07T01:13:21.972Z,2.00
2022-08-07T01:18:27.401Z,2.30
2022-08-07T01:24:31.619Z,2.40
2022-08-07T01:29:44.342Z,2.10
2022-08-07T01:34:51.831Z,1.90
2022-08-07T01:41:26.368Z,2.00
2022-08-07T01:46:47.693Z,2.10
2022-08-07T01:52:03.936Z,2.60
2022-08-07T01:58:05.602Z,2.80
2022-08-07T02:03:48.753Z,3.10
2022-08-07T02:09:54.747Z,3.90
2022-08-07T02:16:28.736Z,3.50
2022-08-07T02:21:55.276Z,3.70
2022-08-07T02:27:17.849Z,4.00
2022-08-07T02:33:00.236Z,2.30
2022-08-07T02:38:39.734Z,1.70
2022-08-07T02:44:15.745Z,3.20
2022-08-07T02:49:56.017Z,3.90
2022-08-07T02:54:52.056Z,4.30
2022-08-07T03:00:01.300Z,3.90
2022-08-07T03:05:11.761Z,4.30
2022-08-07T03:10:25.101Z,3.60
2022-08-07T03:15:47.978Z,3.80
2022-08-07T03:20:58.023Z,2.70
2022-08-07T03:26:04.017Z,3.60
2022-08-07T03:31:23.726Z,2.50
2022-08-07T03:36:44.431Z,3.00
2022-08-07T03:42:02.681Z,3.50
2022-08-07T03:47:23.009Z,3.20
2022-08-07T03:52:51.150Z,3.00
2022-08-07T03:58:35.449Z,2.50
2022-08-07T04:03:20.408Z,1.80
2022-08-07T04:08:25.028Z,2.00
2022-08-07T04:13:28.910Z,2.10
2022-08-07T04:19:01.700Z,2.50
2022-08-07T04:24:30.815Z,2.40
2022-08-07T04:29:48.936Z,2.30
2022-08-07T04:35:37.459Z,2.40
2022-08-07T04:40:52.074Z,2.10
2022-08-07T04:46:12.504Z,2.40
2022-08-07T04:51:50.806Z,1.70
2022-08-07T04:58:10.441Z,2.10
2022-08-07T05:04:00.085Z,2.20
2022-08-07T05:09:27.970Z,3.10
2022-08-07T05:14:59.078Z,2.50
2022-08-07T05:20:11.478Z,2.70
2022-08-07T05:25:26.259Z,2.70
2022-08-07T05:30:47.126Z,2.90
2022-08-07T05:35:53.034Z,2.20
2022-08-07T05:40:58.796Z,2.10
2022-08-07T05:46:04.683Z,2.30
2022-08-07T05:51:12.900Z,1.90
2022-08-07T05:56:30.060Z,1.70
2022-08-07T06:01:36.065Z,2.30
2022-08-07T06:06:46.423Z,2.20
2022-08-07T06:11:51.455Z,2.00
2022-08-07T06:16:57.081Z,1.80
2022-08-07T06:22:14.313Z,1.60
2022-08-07T06:27:43.911Z,1.80
2022-08-07T06:32:49.669Z,1.20
2022-08-07T06:37:53.270Z,1.10
2022-08-07T06:42:59.191Z,1.20
2022-08-07T06:48:06.748Z,1.10
2022-08-07T06:54:11.735Z,1.40
2022-08-07T06:58:40.819Z,1.20
2022-08-07T07:04:32.618Z,0.80
2022-08-07T07:09:31.889Z,0.90
2022-08-07T07:14:58.441Z,0.80
2022-08-07T07:20:10.980Z,1.10
2022-08-07T07:26:35.471Z,0.70
2022-08-07T07:30:57.825Z,0.90
2022-08-07T07:36:05.419Z,0.70
2022-08-07T07:41:21.806Z,0.60
2022-08-07T07:46:55.862Z,0.60
2022-08-07T07:52:03.715Z,0.60
2022-08-07T07:57:11.134Z,0.60
2022-08-07T08:02:33.709Z,0.70
2022-08-07T08:07:59.997Z,0.90
2022-08-07T08:20:19.977Z,0.50
2022-08-07T08:25:55.371Z,0.70
2022-08-07T08:31:02.841Z,0.70
2022-08-07T08:36:11.247Z,0.80
2022-08-07T08:41:58.533Z,0.60
2022-08-07T08:47:27.065Z,0.50
2022-08-07T08:52:35.971Z,0.50
2022-08-07T08:58:06.768Z,0.50
2022-08-07T09:04:00.590Z,0.80
2022-08-07T09:09:33.247Z,0.60
2022-08-07T09:16:23.130Z,0.50
2022-08-07T09:20:57.940Z,0.50
2022-08-07T09:26:28.195Z,0.50
2022-08-07T09:31:52.202Z,0.60
2022-08-07T09:37:14.659Z,0.60
2022-08-07T09:42:45.751Z,0.60
2022-08-07T09:48:15.290Z,0.50
2022-08-07T09:53:26.194Z,0.70
2022-08-07T09:59:07.541Z,0.80
2022-08-07T10:04:53.443Z,0.60
2022-08-07T10:10:21.981Z,0.90
2022-08-07T10:16:00.775Z,0.40
2022-08-07T10:22:14.176Z,0.50
2022-08-07T10:27:20.907Z,0.50
2022-08-07T10:32:59.943Z,0.70
2022-08-07T10:38:46.410Z,0.40
2022-08-07T10:44:08.484Z,0.40
2022-08-07T10:49:49.164Z,0.50
2022-08-07T10:55:26.980Z,0.40
2022-08-07T11:01:13.201Z,0.50
2022-08-07T11:06:31.204Z,0.50
2022-08-07T11:11:51.874Z,0.50
2022-08-07T11:17:23.242Z,0.60
2022-08-07T11:23:09.380Z,0.60
2022-08-07T11:28:24.852Z,0.50
2022-08-07T11:33:59.785Z,0.50
2022-08-07T11:39:39.551Z,0.30
2022-08-07T11:45:49.906Z,0.60
2022-08-07T11:51:03.707Z,0.40
2022-08-07T11:56:32.976Z,0.40
2022-08-07T12:02:01.348Z,0.70
2022-08-07T12:07:27.476Z,0.70
2022-08-07T12:13:11.534Z,0.60
2022-08-07T12:18:45.321Z,0.60
2022-08-07T12:24:12.394Z,0.60
2022-08-07T12:29:52.558Z,0.50
2022-08-07T12:34:58.997Z,0.60
2022-08-07T12:40:29.764Z,0.60
2022-08-07T12:45:37.897Z,0.60
2022-08-07T12:51:46.468Z,0.70
2022-08-07T12:56:55.067Z,0.50
2022-08-07T13:02:19.138Z,0.70
2022-08-07T13:08:14.553Z,0.60
2022-08-07T13:13:46.824Z,0.70
2022-08-07T13:19:18.265Z,0.80
2022-08-07T13:24:54.198Z,0.80
2022-08-07T13:30:19.741Z,0.50
2022-08-07T13:36:00.200Z,0.60
2022-08-07T13:41:48.546Z,0.70
2022-08-07T13:46:57.080Z,0.50
2022-08-07T13:52:31.614Z,0.60
2022-08-07T13:57:37.806Z,0.60
2022-08-07T14:02:51.186Z,1.20
2022-08-07T14:08:02.998Z,0.50
2022-08-07T14:13:08.634Z,0.40
2022-08-07T14:18:28.394Z,0.60
2022-08-07T14:24:00.129Z,0.40
2022-08-07T14:30:02.829Z,0.50
2022-08-07T14:34:32.535Z,0.50
2022-08-07T14:40:17.846Z,0.50
2022-08-07T14:45:21.134Z,0.50
2022-08-07T14:50:28.151Z,0.50
2022-08-07T14:55:34.677Z,0.70
2022-08-07T15:01:00.318Z,0.50
2022-08-07T15:06:31.682Z,0.60
2022-08-07T15:12:06.720Z,0.60
2022-08-07T15:17:27.223Z,0.50
2022-08-07T15:22:56.377Z,0.30
2022-08-07T15:33:42.735Z,0.50
2022-08-07T15:38:59.208Z,0.80
2022-08-07T15:44:31.365Z,0.40
2022-08-07T15:55:08.602Z,0.70
2022-08-07T16:00:31.881Z,0.80
2022-08-07T16:05:39.992Z,0.70
2022-08-07T16:10:54.345Z,0.50
2022-08-07T16:16:47.925Z,0.60
2022-08-07T16:22:37.714Z,0.60
2022-08-07T16:30:05.750Z,0.60
2022-08-07T16:34:06.721Z,0.50
2022-08-07T16:39:55.784Z,0.60
2022-08-07T16:47:02.776Z,0.60
2022-08-07T16:52:41.707Z,0.60
2022-08-07T16:58:01.788Z,0.60
2022-08-07T17:04:00.012Z,0.70
2022-08-07T17:09:14.372Z,0.50
2022-08-07T17:14:50.363Z,0.70
2022-08-07T17:21:00.221Z,1.00
2022-08-07T17:26:24.161Z,0.80
2022-08-07T17:32:02.532Z,0.70
2022-08-07T17:38:06.511Z,0.60
2022-08-07T17:42:59.534Z,0.60
2022-08-07T17:48:12.767Z,0.50
2022-08-07T17:54:02.434Z,0.50
2022-08-07T17:59:16.885Z,0.60
2022-08-07T18:04:42.509Z,0.80
2022-08-07T18:10:09.833Z,0.80
2022-08-07T18:15:32.580Z,0.60
2022-08-07T18:21:08.288Z,0.80
2022-08-07T18:26:40.680Z,0.70
2022-08-07T18:32:26.001Z,0.60
2022-08-07T18:38:54.814Z,0.60
2022-08-07T18:44:03.363Z,1.20
2022-08-07T18:50:32.631Z,0.80
2022-08-07T18:55:42.541Z,0.90
2022-08-07T19:00:55.102Z,1.00
2022-08-07T19:06:53.392Z,0.70
2022-08-07T19:12:33.381Z,0.70
2022-08-07T19:18:14.982Z,1.00
2022-08-07T19:23:59.081Z,0.90
2022-08-07T19:30:54.671Z,0.90
2022-08-07T19:34:36.197Z,1.10
2022-08-07T19:39:56.932Z,1.10
2022-08-07T19:45:09.886Z,0.90
2022-08-07T19:50:41.093Z,1.10
2022-08-07T19:55:57.862Z,1.00
2022-08-07T20:01:03.422Z,0.90
2022-08-07T20:06:30.864Z,1.10
2022-08-07T20:12:22.057Z,1.10
2022-08-07T20:17:10.009Z,1.10
2022-08-07T20:35:54.294Z,1.00
2022-08-07T20:41:05.840Z,1.20
2022-08-07T20:46:26.821Z,1.40
2022-08-07T20:51:35.970Z,1.40
2022-08-07T20:56:52.975Z,0.80
2022-08-07T21:01:58.541Z,1.20
2022-08-07T21:07:14.675Z,0.80
2022-08-07T21:12:28.802Z,1.10
2022-08-07T21:18:03.821Z,1.30
2022-08-07T21:23:17.428Z,1.10
2022-08-07T21:28:52.110Z,1.10
2022-08-07T21:34:07.544Z,1.30
2022-08-07T21:39:45.061Z,1.20
2022-08-07T21:46:04.802Z,1.10
2022-08-07T21:50:55.049Z,1.00
2022-08-07T21:56:36.104Z,1.10
2022-08-07T22:02:11.131Z,1.00
2022-08-07T22:07:35.755Z,1.00
2022-08-07T22:13:02.943Z,1.70
2022-08-07T22:18:43.713Z,1.10
2022-08-07T22:24:04.099Z,1.00
2022-08-07T22:29:33.731Z,1.50
2022-08-07T22:34:53.207Z,1.00
2022-08-07T22:40:10.639Z,1.20
2022-08-07T22:46:04.412Z,1.30
2022-08-07T22:51:36.304Z,1.20
2022-08-07T22:56:58.258Z,1.30
2022-08-07T23:02:49.000Z,1.20
2022-08-07T23:08:23.886Z,1.20
2022-08-07T23:13:29.055Z,1.20
2022-08-07T23:19:15.806Z,1.00
2022-08-07T23:24:45.795Z,1.20
2022-08-07T23:30:39.172Z,1.80
2022-08-07T23:36:17.418Z,1.50
2022-08-07T23:41:47.507Z,1.40
2022-08-07T23:47:29.853Z,1.00
2022-08-07T23:52:57.921Z,1.30
2022-08-07T23:58:24.600Z,1.70
